Time;durP1;ratioP1;P1;durP2;ratioP2;P2;SDS_P1;SDS_P2;PMS_P1;PMS_P2;Temp;Humidity;BMP_temperature;BMP_pressure;BME280_temperature;BME280_humidity;BME280_pressure;Samples;Min_cycle;Max_cycle;Signal;HPM_P1;HPM_P2
2022/11/18 00:00:57;;;;;;;27.55;20.20;;;;;;;;;;5034138;28;20079;-67
2022/11/18 00:03:23;;;;;;;27.92;20.42;;;;;;;;;;5033392;28;20057;-66
2022/11/18 00:05:53;;;;;;;28.23;20.10;;;;;;;;;;5031387;28;20085;-66
2022/11/18 00:08:19;;;;;;;25.40;19.50;;;;;;;;;;5034165;28;20049;-67
2022/11/18 00:10:47;;;;;;;30.50;20.55;;;;;;;;;;5034162;28;20060;-67
2022/11/18 00:16:02;;;;;;;28.38;22.10;;;;;;;;;;5031624;28;20420;-66
2022/11/18 00:18:28;;;;;;;28.77;21.10;;;;;;;;;;5031545;28;20133;-66
2022/11/18 00:20:54;;;;;;;31.10;23.05;;;;;;;;;;5032741;28;20441;-67
2022/11/18 00:23:21;;;;;;;33.38;21.60;;;;;;;;;;5066249;28;20041;-67
2022/11/18 00:25:47;;;;;;;34.95;22.75;;;;;;;;;;5031723;28;20546;-66
2022/11/18 00:28:13;;;;;;;33.10;22.65;;;;;;;;;;5033393;28;20051;-66
2022/11/18 00:30:39;;;;;;;32.92;24.00;;;;;;;;;;5035504;28;20064;-67
2022/11/18 00:33:05;;;;;;;35.70;25.73;;;;;;;;;;5035233;28;20044;-66
2022/11/18 00:35:31;;;;;;;31.25;24.63;;;;;;;;;;5034473;28;20115;-66
2022/11/18 00:37:57;;;;;;;34.03;24.90;;;;;;;;;;5034599;28;20373;-66
2022/11/18 00:40:24;;;;;;;36.17;25.75;;;;;;;;;;5036447;28;20900;-67
2022/11/18 00:42:50;;;;;;;38.40;26.13;;;;;;;;;;5036948;28;20763;-67
2022/11/18 00:45:17;;;;;;;34.40;24.95;;;;;;;;;;5034087;28;20041;-67
2022/11/18 00:47:43;;;;;;;37.92;26.15;;;;;;;;;;5034972;28;20033;-67
2022/11/18 00:50:10;;;;;;;40.20;26.88;;;;;;;;;;5037760;28;20085;-67
2022/11/18 00:52:36;;;;;;;41.10;26.92;;;;;;;;;;5039483;28;20049;-66
2022/11/18 00:55:02;;;;;;;37.90;26.90;;;;;;;;;;5036610;28;20046;-66
2022/11/18 00:57:28;;;;;;;41.30;27.45;;;;;;;;;;5035944;28;20044;-66
2022/11/18 00:59:54;;;;;;;41.85;28.75;;;;;;;;;;5035792;28;20049;-66
2022/11/18 01:02:20;;;;;;;45.90;29.00;;;;;;;;;;5038431;28;20123;-66
2022/11/18 01:04:47;;;;;;;39.97;28.30;;;;;;;;;;5032143;28;20053;-67
2022/11/18 01:07:13;;;;;;;42.30;29.13;;;;;;;;;;5039000;28;20067;-67
2022/11/18 01:09:39;;;;;;;46.55;29.95;;;;;;;;;;5037695;28;20051;-66
2022/11/18 01:14:50;;;;;;;51.03;30.33;;;;;;;;;;5039633;28;20049;-66
2022/11/18 01:17:16;;;;;;;50.22;30.55;;;;;;;;;;5039076;28;20045;-66
2022/11/18 01:19:42;;;;;;;46.25;29.65;;;;;;;;;;5036949;28;20132;-66
2022/11/18 01:22:09;;;;;;;49.15;29.20;;;;;;;;;;5037158;28;20052;-67
2022/11/18 01:24:35;;;;;;;47.53;30.02;;;;;;;;;;5038312;28;20046;-66
2022/11/18 01:27:01;;;;;;;46.90;30.23;;;;;;;;;;5033434;28;20045;-66
2022/11/18 01:29:27;;;;;;;48.60;30.80;;;;;;;;;;5038744;28;20037;-66
2022/11/18 01:31:54;;;;;;;46.83;30.00;;;;;;;;;;5031025;28;20048;-66
2022/11/18 01:34:20;;;;;;;54.78;29.77;;;;;;;;;;5034249;28;20044;-66
2022/11/18 01:36:46;;;;;;;54.38;30.17;;;;;;;;;;5035338;28;20124;-66
2022/11/18 01:39:12;;;;;;;48.95;30.80;;;;;;;;;;5032981;28;20076;-67
2022/11/18 01:41:38;;;;;;;52.05;30.73;;;;;;;;;;5038959;28;20064;-67
2022/11/18 01:44:05;;;;;;;55.17;30.30;;;;;;;;;;5034575;28;20052;-67
2022/11/18 01:46:32;;;;;;;52.05;31.35;;;;;;;;;;5034026;28;20040;-66
2022/11/18 01:49:05;;;;;;;50.72;29.88;;;;;;;;;;5038060;28;20124;-67
2022/11/18 01:51:34;;;;;;;53.10;30.80;;;;;;;;;;5041071;28;20094;-66
2022/11/18 01:54:05;;;;;;;55.33;30.70;;;;;;;;;;5074553;28;20106;-66
2022/11/18 01:56:36;;;;;;;45.72;27.83;;;;;;;;;;5037142;28;20166;-66
2022/11/18 01:59:05;;;;;;;55.40;31.65;;;;;;;;;;5039482;28;20053;-66
2022/11/18 02:01:32;;;;;;;52.58;29.13;;;;;;;;;;5073886;28;20053;-67
2022/11/18 02:03:58;;;;;;;48.60;28.83;;;;;;;;;;5043969;28;20048;-66
2022/11/18 02:06:24;;;;;;;47.75;28.45;;;;;;;;;;5052103;28;20116;-67
2022/11/18 02:08:51;;;;;;;52.60;29.75;;;;;;;;;;5032828;28;20373;-67
2022/11/18 02:14:03;;;;;;;50.53;29.13;;;;;;;;;;5038274;28;20481;-67
2022/11/18 02:16:52;;;;;;;52.05;29.88;;;;;;;;;;5038989;28;20102;-67
2022/11/18 02:19:22;;;;;;;52.75;29.95;;;;;;;;;;5038922;28;20408;-67
2022/11/18 02:21:58;;;;;;;54.95;31.17;;;;;;;;;;5038018;28;20372;-66
2022/11/18 02:24:36;;;;;;;57.88;29.40;;;;;;;;;;5036638;28;20041;-66
2022/11/18 02:27:04;;;;;;;56.53;29.75;;;;;;;;;;5035849;28;20033;-66
2022/11/18 02:29:32;;;;;;;55.08;30.00;;;;;;;;;;5071386;28;20044;-67
2022/11/18 02:32:00;;;;;;;54.47;29.35;;;;;;;;;;5035187;28;20515;-67
2022/11/18 02:34:26;;;;;;;55.55;29.52;;;;;;;;;;5032229;28;20080;-67
2022/11/18 02:36:56;;;;;;;57.88;31.33;;;;;;;;;;5031728;28;20056;-66
2022/11/18 02:39:27;;;;;;;62.00;31.38;;;;;;;;;;5031527;28;20106;-66
2022/11/18 02:41:56;;;;;;;58.88;31.95;;;;;;;;;;5031251;28;20437;-67
2022/11/18 02:44:24;;;;;;;64.50;31.00;;;;;;;;;;5036889;28;20126;-67
2022/11/18 02:46:54;;;;;;;65.15;31.92;;;;;;;;;;5035111;28;20045;-66
2022/11/18 02:49:22;;;;;;;54.90;30.48;;;;;;;;;;5036862;28;20489;-67
2022/11/18 02:51:50;;;;;;;58.53;30.65;;;;;;;;;;5043898;28;20060;-66
2022/11/18 02:54:18;;;;;;;60.67;31.13;;;;;;;;;;5039980;28;20053;-67
2022/11/18 02:56:44;;;;;;;61.05;32.65;;;;;;;;;;5035814;28;20459;-67
2022/11/18 02:59:10;;;;;;;64.18;33.35;;;;;;;;;;5032772;28;20056;-66
2022/11/18 03:01:36;;;;;;;63.40;32.90;;;;;;;;;;5032709;28;20080;-67
2022/11/18 03:04:02;;;;;;;61.10;32.03;;;;;;;;;;5032200;28;20079;-66
2022/11/18 03:06:32;;;;;;;57.13;32.33;;;;;;;;;;5028668;28;20056;-67
2022/11/18 03:09:08;;;;;;;62.33;30.77;;;;;;;;;;5032874;28;20037;-67
2022/11/18 03:11:54;;;;;;;59.83;31.50;;;;;;;;;;5032075;28;20041;-66
2022/11/18 03:14:32;;;;;;;55.40;30.52;;;;;;;;;;5061384;28;20481;-67
2022/11/18 03:16:59;;;;;;;56.47;31.80;;;;;;;;;;5030762;28;20083;-67
2022/11/18 03:19:25;;;;;;;56.63;30.30;;;;;;;;;;5066358;28;20080;-66
2022/11/18 03:21:55;;;;;;;53.25;30.35;;;;;;;;;;5032666;28;20045;-67
2022/11/18 03:24:25;;;;;;;58.60;32.00;;;;;;;;;;5035628;28;20068;-66
2022/11/18 03:26:54;;;;;;;63.83;31.63;;;;;;;;;;5040072;28;20328;-67
2022/11/18 03:29:24;;;;;;;60.03;30.90;;;;;;;;;;5039325;28;20048;-67
2022/11/18 03:31:54;;;;;;;55.80;31.63;;;;;;;;;;5033832;28;20088;-67
2022/11/18 03:34:29;;;;;;;54.90;31.05;;;;;;;;;;5035876;28;20048;-66
2022/11/18 03:36:58;;;;;;;55.70;30.38;;;;;;;;;;5035784;28;20098;-66
2022/11/18 03:39:26;;;;;;;56.80;30.90;;;;;;;;;;5036204;28;20041;-67
2022/11/18 03:41:54;;;;;;;54.70;30.42;;;;;;;;;;5033183;28;20040;-67
2022/11/18 03:44:26;;;;;;;58.67;30.83;;;;;;;;;;5034896;28;20057;-66
2022/11/18 03:46:56;;;;;;;63.20;32.17;;;;;;;;;;5035788;28;20429;-66
2022/11/18 03:49:32;;;;;;;57.75;31.30;;;;;;;;;;5032096;28;20095;-66
2022/11/18 03:52:02;;;;;;;49.70;30.75;;;;;;;;;;5034129;28;20052;-67
2022/11/18 03:54:30;;;;;;;57.60;30.25;;;;;;;;;;5033562;28;20075;-66
2022/11/18 03:57:00;;;;;;;59.50;31.10;;;;;;;;;;5032688;28;20186;-66
2022/11/18 03:59:36;;;;;;;62.17;31.52;;;;;;;;;;5058226;28;20057;-66
2022/11/18 04:02:05;;;;;;;55.45;32.20;;;;;;;;;;5031579;28;20389;-66
2022/11/18 04:04:31;;;;;;;62.72;30.33;;;;;;;;;;5031631;28;20570;-66
2022/11/18 04:07:03;;;;;;;58.30;31.42;;;;;;;;;;5031114;28;20049;-67
2022/11/18 04:09:35;;;;;;;58.10;31.40;;;;;;;;;;5038208;28;20117;-67
2022/11/18 04:12:04;;;;;;;59.58;30.80;;;;;;;;;;5035953;28;20408;-66
2022/11/18 04:14:31;;;;;;;64.90;32.35;;;;;;;;;;5038008;28;20053;-66
2022/11/18 04:16:58;;;;;;;61.70;32.58;;;;;;;;;;5037418;28;20057;-66
2022/11/18 04:19:24;;;;;;;57.53;30.10;;;;;;;;;;5032961;28;21777;-66
2022/11/18 04:21:50;;;;;;;52.55;29.63;;;;;;;;;;5037015;28;20072;-67
2022/11/18 04:24:16;;;;;;;61.38;30.55;;;;;;;;;;5032891;28;20052;-67
2022/11/18 04:26:43;;;;;;;58.47;30.48;;;;;;;;;;5038385;28;20487;-66
2022/11/18 04:29:09;;;;;;;59.83;31.77;;;;;;;;;;5038322;28;20045;-67
2022/11/18 04:31:35;;;;;;;59.40;31.95;;;;;;;;;;5034825;28;20160;-67
2022/11/18 04:34:01;;;;;;;58.10;30.55;;;;;;;;;;5037269;28;20053;-66
2022/11/18 04:36:27;;;;;;;53.83;29.77;;;;;;;;;;5039326;28;20445;-67
2022/11/18 04:38:53;;;;;;;57.85;30.67;;;;;;;;;;5035792;28;20136;-67
2022/11/18 04:41:54;;;;;;;57.22;30.35;;;;;;;;;;5036144;28;20088;-67
2022/11/18 04:44:11;;;;;;;57.97;29.70;;;;;;;;;;5033748;28;20052;-66
2022/11/18 04:46:38;;;;;;;56.83;30.77;;;;;;;;;;5033516;28;20045;-67
2022/11/18 04:49:05;;;;;;;59.58;30.30;;;;;;;;;;5034818;28;20059;-66
2022/11/18 04:51:31;;;;;;;51.15;30.13;;;;;;;;;;5035241;28;20063;-66
2022/11/18 04:53:57;;;;;;;47.35;27.25;;;;;;;;;;5055583;28;20048;-67
2022/11/18 04:56:23;;;;;;;54.95;30.33;;;;;;;;;;5032251;28;20250;-66
2022/11/18 04:58:49;;;;;;;58.15;29.92;;;;;;;;;;5035891;28;20049;-66
2022/11/18 05:01:15;;;;;;;51.60;28.85;;;;;;;;;;5034223;28;20045;-67
2022/11/18 05:03:42;;;;;;;53.92;28.50;;;;;;;;;;5037839;28;20044;-67
2022/11/18 05:06:08;;;;;;;51.05;28.30;;;;;;;;;;5036368;28;20279;-67
2022/11/18 05:08:34;;;;;;;48.05;27.30;;;;;;;;;;5036958;28;20049;-67
2022/11/18 05:13:45;;;;;;;51.80;28.55;;;;;;;;;;5070164;28;20061;-66
2022/11/18 05:16:11;;;;;;;46.60;27.23;;;;;;;;;;5039449;28;20059;-67
2022/11/18 05:18:37;;;;;;;50.20;28.30;;;;;;;;;;5038137;28;20072;-67
2022/11/18 05:21:05;;;;;;;54.00;29.98;;;;;;;;;;5039518;28;20115;-67
2022/11/18 05:23:31;;;;;;;47.72;26.83;;;;;;;;;;5038344;28;20079;-66
2022/11/18 05:25:57;;;;;;;51.70;28.23;;;;;;;;;;5038628;28;20064;-66
2022/11/18 05:28:23;;;;;;;49.35;27.60;;;;;;;;;;5038630;28;20128;-66
2022/11/18 05:30:49;;;;;;;49.00;27.75;;;;;;;;;;5038388;28;20041;-66
2022/11/18 05:33:16;;;;;;;62.13;28.05;;;;;;;;;;5038376;28;20044;-66
2022/11/18 05:35:42;;;;;;;45.63;26.42;;;;;;;;;;5037638;28;20163;-67
2022/11/18 05:38:08;;;;;;;51.20;26.23;;;;;;;;;;5038411;28;20051;-67
2022/11/18 05:40:34;;;;;;;48.83;27.67;;;;;;;;;;5036016;28;20124;-67
2022/11/18 05:43:10;;;;;;;48.30;26.45;;;;;;;;;;5041475;28;20056;-66
2022/11/18 05:45:37;;;;;;;47.15;25.70;;;;;;;;;;5038083;28;20392;-66
2022/11/18 05:48:05;;;;;;;48.53;26.85;;;;;;;;;;5039118;28;20087;-67
2022/11/18 05:50:32;;;;;;;47.72;26.85;;;;;;;;;;5039390;28;20182;-66
2022/11/18 05:52:58;;;;;;;49.90;27.70;;;;;;;;;;5044824;28;21075;-66
2022/11/18 05:55:28;;;;;;;43.92;25.38;;;;;;;;;;5046844;28;20060;-67
2022/11/18 05:57:54;;;;;;;46.70;26.38;;;;;;;;;;5041992;28;20037;-66
2022/11/18 06:00:20;;;;;;;46.70;27.58;;;;;;;;;;5042129;28;20072;-67
2022/11/18 06:02:48;;;;;;;44.72;25.58;;;;;;;;;;5040890;28;20131;-66
2022/11/18 06:05:14;;;;;;;45.10;25.98;;;;;;;;;;5072471;28;20129;-66
2022/11/18 06:07:42;;;;;;;47.83;26.27;;;;;;;;;;5042842;28;20091;-66
2022/11/18 06:10:10;;;;;;;46.15;25.52;;;;;;;;;;5037599;28;20090;-67
2022/11/18 06:12:40;;;;;;;42.65;25.77;;;;;;;;;;5040843;28;20049;-67
2022/11/18 06:15:09;;;;;;;43.15;26.00;;;;;;;;;;5037617;28;20117;-67
2022/11/18 06:17:39;;;;;;;43.05;25.05;;;;;;;;;;5041197;28;20076;-67
2022/11/18 06:20:06;;;;;;;45.00;25.52;;;;;;;;;;5041838;28;20416;-67
2022/11/18 06:22:33;;;;;;;45.95;25.75;;;;;;;;;;5047571;28;20081;-67
2022/11/18 06:25:00;;;;;;;44.08;25.80;;;;;;;;;;5045330;28;20945;-67
2022/11/18 06:27:26;;;;;;;43.33;25.13;;;;;;;;;;5041487;28;20052;-67
2022/11/18 06:29:52;;;;;;;42.33;25.38;;;;;;;;;;5041974;28;20034;-67
2022/11/18 06:32:18;;;;;;;45.17;25.85;;;;;;;;;;5039926;28;20128;-67
2022/11/18 06:34:45;;;;;;;44.97;24.35;;;;;;;;;;5039679;28;20068;-67
2022/11/18 06:37:12;;;;;;;48.50;24.63;;;;;;;;;;5041517;28;20045;-67
2022/11/18 06:39:39;;;;;;;39.67;24.58;;;;;;;;;;5039788;28;20040;-67
2022/11/18 06:42:05;;;;;;;46.17;25.70;;;;;;;;;;5039317;28;20077;-67
2022/11/18 06:44:31;;;;;;;46.90;25.67;;;;;;;;;;5046432;28;20038;-67
2022/11/18 06:46:58;;;;;;;40.60;24.08;;;;;;;;;;5045782;28;20037;-67
2022/11/18 06:49:25;;;;;;;45.22;25.60;;;;;;;;;;5044493;28;20095;-67
2022/11/18 06:51:58;;;;;;;41.30;24.33;;;;;;;;;;5116416;27;20366;-68
2022/11/18 06:54:24;;;;;;;44.15;24.60;;;;;;;;;;5092403;28;20067;-68
2022/11/18 06:56:51;;;;;;;45.13;24.85;;;;;;;;;;5071733;28;20056;-68
2022/11/18 06:59:22;;;;;;;44.30;24.45;;;;;;;;;;5075970;28;20055;-67
2022/11/18 07:01:49;;;;;;;40.58;24.70;;;;;;;;;;5077086;28;20052;-68
2022/11/18 07:04:15;;;;;;;49.75;25.70;;;;;;;;;;5097877;28;20134;-67
2022/11/18 07:06:41;;;;;;;50.35;25.35;;;;;;;;;;5097293;28;20063;-68
2022/11/18 07:09:07;;;;;;;50.78;25.45;;;;;;;;;;5095161;28;20044;-67
2022/11/18 07:11:34;;;;;;;46.63;25.52;;;;;;;;;;5076445;28;20271;-67
2022/11/18 07:14:00;;;;;;;50.45;26.00;;;;;;;;;;5093958;28;20076;-67
2022/11/18 07:16:27;;;;;;;41.25;24.23;;;;;;;;;;5093180;28;20052;-67
2022/11/18 07:18:54;;;;;;;46.00;24.85;;;;;;;;;;5078431;28;20119;-67
2022/11/18 07:21:21;;;;;;;43.65;24.92;;;;;;;;;;5099287;28;20051;-67
2022/11/18 07:23:47;;;;;;;47.15;26.10;;;;;;;;;;5095893;28;20051;-67
2022/11/18 07:26:14;;;;;;;46.53;24.60;;;;;;;;;;5059426;28;20104;-68
2022/11/18 07:28:41;;;;;;;55.42;25.17;;;;;;;;;;5075353;28;20058;-68
2022/11/18 07:31:08;;;;;;;49.67;26.17;;;;;;;;;;5079535;28;20067;-68
2022/11/18 07:33:34;;;;;;;51.13;26.63;;;;;;;;;;5091438;28;20098;-67
2022/11/18 07:36:01;;;;;;;49.88;26.00;;;;;;;;;;5073618;28;20063;-67
2022/11/18 07:38:28;;;;;;;46.72;24.95;;;;;;;;;;5092254;28;20044;-67
2022/11/18 07:40:54;;;;;;;42.45;24.23;;;;;;;;;;5095159;28;20040;-67
2022/11/18 07:43:20;;;;;;;52.90;25.27;;;;;;;;;;5094619;28;20787;-67
2022/11/18 07:45:46;;;;;;;48.05;24.98;;;;;;;;;;5058586;28;20074;-67
2022/11/18 07:48:12;;;;;;;53.05;25.50;;;;;;;;;;5085257;28;20055;-68
2022/11/18 07:50:39;;;;;;;49.67;25.58;;;;;;;;;;5063947;28;20079;-67
2022/11/18 07:53:05;;;;;;;47.15;24.52;;;;;;;;;;5068613;28;20106;-67
2022/11/18 07:55:31;;;;;;;47.88;24.48;;;;;;;;;;5068650;28;20040;-65
2022/11/18 07:57:57;;;;;;;50.08;24.40;;;;;;;;;;5063452;28;20052;-67
2022/11/18 08:00:23;;;;;;;51.47;25.92;;;;;;;;;;5085871;28;20048;-67
2022/11/18 08:02:50;;;;;;;47.47;24.55;;;;;;;;;;5075388;28;20044;-67
2022/11/18 08:05:16;;;;;;;47.22;23.67;;;;;;;;;;5076894;28;20420;-67
2022/11/18 08:07:43;;;;;;;53.63;25.60;;;;;;;;;;5062432;28;20040;-67
2022/11/18 08:10:09;;;;;;;52.97;25.88;;;;;;;;;;5075325;28;20041;-67
2022/11/18 08:12:35;;;;;;;51.97;26.33;;;;;;;;;;5055723;28;20052;-67
2022/11/18 08:15:01;;;;;;;51.22;25.17;;;;;;;;;;5063132;28;20033;-67
2022/11/18 08:17:27;;;;;;;52.92;26.33;;;;;;;;;;5056685;28;20132;-67
2022/11/18 08:19:54;;;;;;;56.15;26.40;;;;;;;;;;5073631;28;20045;-67
2022/11/18 08:22:20;;;;;;;51.17;24.88;;;;;;;;;;5089239;28;20059;-67
2022/11/18 08:24:46;;;;;;;56.47;26.35;;;;;;;;;;5080651;28;20131;-67
2022/11/18 08:27:13;;;;;;;49.88;25.33;;;;;;;;;;5068323;28;20072;-67
2022/11/18 08:29:40;;;;;;;56.85;25.02;;;;;;;;;;5080961;28;20036;-67
2022/11/18 08:32:06;;;;;;;52.40;25.00;;;;;;;;;;5060432;28;20588;-67
2022/11/18 08:34:32;;;;;;;54.38;25.42;;;;;;;;;;5085273;28;20036;-67
2022/11/18 08:36:59;;;;;;;52.15;23.52;;;;;;;;;;5087041;28;20059;-67
2022/11/18 08:39:25;;;;;;;55.28;22.90;;;;;;;;;;5061164;28;20515;-67
2022/11/18 08:41:51;;;;;;;54.72;25.75;;;;;;;;;;5071637;28;20040;-66
2022/11/18 08:44:17;;;;;;;56.15;25.85;;;;;;;;;;5078498;28;20119;-66
2022/11/18 08:46:44;;;;;;;50.63;24.15;;;;;;;;;;5071288;28;20480;-68
2022/11/18 08:49:10;;;;;;;49.25;23.98;;;;;;;;;;5075899;28;20040;-66
2022/11/18 08:51:37;;;;;;;51.35;25.27;;;;;;;;;;5077672;28;20079;-66
2022/11/18 08:54:03;;;;;;;52.80;24.13;;;;;;;;;;5077635;28;20051;-66
2022/11/18 08:56:29;;;;;;;50.92;22.90;;;;;;;;;;5084318;28;20051;-66
2022/11/18 08:58:56;;;;;;;52.17;23.38;;;;;;;;;;5067398;28;20514;-67
2022/11/18 09:01:22;;;;;;;45.05;23.10;;;;;;;;;;5083499;28;20457;-67
2022/11/18 09:03:49;;;;;;;49.67;23.70;;;;;;;;;;5085318;28;20128;-66
2022/11/18 09:06:16;;;;;;;46.78;22.95;;;;;;;;;;5085233;28;20051;-67
2022/11/18 09:08:43;;;;;;;41.33;20.42;;;;;;;;;;5065521;28;20066;-67
2022/11/18 09:11:11;;;;;;;44.30;22.35;;;;;;;;;;5085539;28;20201;-67
2022/11/18 09:13:37;;;;;;;40.53;21.75;;;;;;;;;;5065713;28;20048;-67
2022/11/18 09:16:04;;;;;;;40.55;19.17;;;;;;;;;;5080122;28;20072;-66
2022/11/18 09:18:30;;;;;;;38.65;20.65;;;;;;;;;;5059758;28;20040;-67
2022/11/18 09:20:57;;;;;;;36.53;18.27;;;;;;;;;;5077404;28;20048;-67
2022/11/18 09:23:23;;;;;;;39.58;19.20;;;;;;;;;;5080663;28;20070;-66
2022/11/18 09:25:56;;;;;;;39.60;18.85;;;;;;;;;;5082951;28;20044;-67
2022/11/18 09:28:22;;;;;;;38.87;18.87;;;;;;;;;;5060801;28;20048;-67
2022/11/18 09:30:48;;;;;;;32.25;17.38;;;;;;;;;;5063698;28;20068;-67
2022/11/18 09:33:15;;;;;;;32.13;17.17;;;;;;;;;;5059291;28;20122;-66
2022/11/18 09:35:42;;;;;;;32.85;17.85;;;;;;;;;;5078182;28;20078;-67
2022/11/18 09:38:08;;;;;;;29.67;15.95;;;;;;;;;;5079494;28;20156;-67
2022/11/18 09:40:45;;;;;;;28.80;15.88;;;;;;;;;;5077694;28;20048;-67
2022/11/18 09:43:19;;;;;;;28.85;15.73;;;;;;;;;;5077917;28;20131;-66
2022/11/18 09:45:48;;;;;;;32.55;15.50;;;;;;;;;;5075880;28;20177;-66
2022/11/18 09:48:17;;;;;;;30.90;17.35;;;;;;;;;;5053701;28;20047;-67
2022/11/18 09:50:44;;;;;;;27.25;15.65;;;;;;;;;;5039989;28;20079;-67
2022/11/18 09:53:20;;;;;;;29.95;15.77;;;;;;;;;;5071904;28;20044;-67
2022/11/18 09:55:46;;;;;;;24.33;13.85;;;;;;;;;;5055259;28;20434;-66
2022/11/18 09:58:17;;;;;;;25.50;14.52;;;;;;;;;;5073924;28;20108;-66
2022/11/18 10:00:44;;;;;;;24.08;13.77;;;;;;;;;;5074798;28;20044;-66
2022/11/18 10:03:26;;;;;;;30.88;15.43;;;;;;;;;;5075418;28;20112;-66
2022/11/18 10:05:57;;;;;;;29.50;14.90;;;;;;;;;;5075050;28;20127;-66
2022/11/18 10:08:28;;;;;;;27.85;14.70;;;;;;;;;;5075930;28;20036;-66
2022/11/18 10:10:55;;;;;;;27.40;16.15;;;;;;;;;;5052067;28;20128;-66
2022/11/18 10:13:42;;;;;;;24.95;14.38;;;;;;;;;;5078173;28;20116;-66
2022/11/18 10:16:22;;;;;;;22.95;14.73;;;;;;;;;;5076612;28;20040;-66
2022/11/18 10:19:11;;;;;;;26.05;13.35;;;;;;;;;;5054428;28;20384;-66
2022/11/18 10:21:56;;;;;;;23.65;13.60;;;;;;;;;;5075925;28;20052;-66
2022/11/18 10:24:24;;;;;;;23.95;13.90;;;;;;;;;;5047466;28;20492;-66
2022/11/18 10:26:55;;;;;;;27.42;14.45;;;;;;;;;;5057861;28;20049;-66
2022/11/18 10:29:22;;;;;;;23.30;13.07;;;;;;;;;;5069802;28;20373;-65
2022/11/18 10:31:54;;;;;;;20.73;12.48;;;;;;;;;;5071055;28;20052;-66
2022/11/18 10:34:20;;;;;;;24.77;13.38;;;;;;;;;;5076773;28;20071;-67
2022/11/18 10:37:13;;;;;;;21.17;12.32;;;;;;;;;;5055506;28;20093;-67
2022/11/18 10:39:49;;;;;;;22.20;13.07;;;;;;;;;;5072791;28;20124;-67
2022/11/18 10:42:20;;;;;;;18.13;11.93;;;;;;;;;;5077866;28;20101;-67
2022/11/18 10:44:46;;;;;;;22.92;13.57;;;;;;;;;;5053795;28;20056;-67
2022/11/18 10:47:22;;;;;;;21.65;12.30;;;;;;;;;;5073650;28;20051;-67
2022/11/18 10:49:48;;;;;;;21.00;12.95;;;;;;;;;;5076257;28;20136;-66
2022/11/18 10:52:14;;;;;;;21.17;12.18;;;;;;;;;;5052126;28;20048;-67
2022/11/18 10:54:41;;;;;;;19.17;12.02;;;;;;;;;;5068618;28;20035;-67
2022/11/18 10:57:14;;;;;;;19.23;11.00;;;;;;;;;;5052527;28;20048;-67
2022/11/18 10:59:46;;;;;;;23.40;12.02;;;;;;;;;;5053903;28;20052;-67
2022/11/18 11:02:16;;;;;;;21.80;13.00;;;;;;;;;;5049102;28;20048;-66
2022/11/18 11:04:43;;;;;;;22.70;13.32;;;;;;;;;;5073964;28;20094;-67
2022/11/18 11:07:31;;;;;;;26.77;15.15;;;;;;;;;;5071868;28;20055;-75
2022/11/18 11:09:59;;;;;;;21.80;13.75;;;;;;;;;;5056896;28;20056;-67
2022/11/18 11:12:26;;;;;;;21.92;12.65;;;;;;;;;;5079880;28;20042;-68
2022/11/18 11:14:54;;;;;;;21.95;12.57;;;;;;;;;;5075723;28;20047;-68
2022/11/18 11:17:30;;;;;;;19.30;12.15;;;;;;;;;;5071320;28;20385;-68
2022/11/18 11:20:06;;;;;;;21.38;12.65;;;;;;;;;;5076075;28;20044;-68
2022/11/18 11:22:32;;;;;;;20.65;11.73;;;;;;;;;;5074042;28;20097;-67
2022/11/18 11:24:59;;;;;;;20.88;11.68;;;;;;;;;;5074300;28;20056;-68
2022/11/18 11:27:25;;;;;;;19.27;12.20;;;;;;;;;;5059868;28;20044;-68
2022/11/18 11:29:51;;;;;;;22.27;12.70;;;;;;;;;;5077690;28;20178;-68
2022/11/18 11:32:35;;;;;;;21.75;13.18;;;;;;;;;;5077872;28;20791;-68
2022/11/18 11:35:07;;;;;;;17.75;11.38;;;;;;;;;;5054202;28;20102;-68
2022/11/18 11:37:41;;;;;;;23.95;11.52;;;;;;;;;;5063421;28;20067;-68
2022/11/18 11:40:07;;;;;;;;;;;;;;;;;;5068940;28;20057;-67
2022/11/18 11:42:39;;;;;;;21.55;10.90;;;;;;;;;;5075388;28;19920;-68
2022/11/18 11:45:23;;;;;;;23.05;10.95;;;;;;;;;;5060528;28;20444;-68
2022/11/18 11:48:00;;;;;;;20.45;12.23;;;;;;;;;;5069326;28;20052;-67
2022/11/18 11:50:53;;;;;;;21.90;13.02;;;;;;;;;;5070602;28;20044;-67
2022/11/18 11:53:28;;;;;;;19.40;11.68;;;;;;;;;;5078374;28;20427;-68
2022/11/18 11:55:55;;;;;;;19.42;11.73;;;;;;;;;;5079761;28;20395;-68
2022/11/18 11:58:31;;;;;;;19.15;12.13;;;;;;;;;;5076447;28;20473;-68
2022/11/18 12:01:04;;;;;;;20.83;11.55;;;;;;;;;;5055159;28;20045;-68
2022/11/18 12:03:36;;;;;;;17.48;11.13;;;;;;;;;;5078205;28;20976;-68
2022/11/18 12:06:02;;;;;;;20.27;11.15;;;;;;;;;;5059436;28;20115;-68
2022/11/18 12:08:30;;;;;;;19.05;10.93;;;;;;;;;;5077087;28;20053;-67
2022/11/18 12:10:56;;;;;;;17.67;11.07;;;;;;;;;;5077280;28;20548;-68
2022/11/18 12:13:31;;;;;;;19.55;11.18;;;;;;;;;;5055807;28;20045;-67
2022/11/18 12:16:02;;;;;;;18.23;10.30;;;;;;;;;;5058596;28;20059;-67
2022/11/18 12:18:33;;;;;;;20.27;11.05;;;;;;;;;;5074938;28;20041;-67
2022/11/18 12:20:59;;;;;;;20.50;11.93;;;;;;;;;;5075581;28;20524;-66
2022/11/18 12:23:27;;;;;;;17.65;10.93;;;;;;;;;;5053583;28;20376;-67
2022/11/18 12:25:56;;;;;;;20.15;11.38;;;;;;;;;;5053291;28;20059;-67
2022/11/18 12:28:25;;;;;;;24.85;11.38;;;;;;;;;;5082070;28;20032;-67
2022/11/18 12:31:11;;;;;;;23.70;12.32;;;;;;;;;;5074399;28;20059;-67
2022/11/18 12:33:46;;;;;;;21.75;11.63;;;;;;;;;;5077985;28;20060;-67
2022/11/18 12:36:25;;;;;;;23.63;12.45;;;;;;;;;;5073471;28;20040;-67
2022/11/18 12:38:52;;;;;;;22.02;12.77;;;;;;;;;;5056087;28;20072;-67
2022/11/18 12:44:24;;;;;;;21.33;13.45;;;;;;;;;;5075739;28;20040;-67
2022/11/18 12:46:51;;;;;;;21.75;14.07;;;;;;;;;;5058108;28;20055;-67
2022/11/18 12:49:21;;;;;;;29.33;16.83;;;;;;;;;;5072317;28;20045;-67
2022/11/18 12:51:48;;;;;;;31.33;17.15;;;;;;;;;;5072634;28;21799;-66
2022/11/18 12:54:19;;;;;;;29.13;16.63;;;;;;;;;;5074076;28;20047;-67
2022/11/18 12:56:47;;;;;;;30.63;16.52;;;;;;;;;;5054064;28;20400;-67
2022/11/18 12:59:14;;;;;;;27.17;16.77;;;;;;;;;;5076436;28;20078;-67
2022/11/18 13:01:40;;;;;;;30.52;16.27;;;;;;;;;;5052072;28;20055;-67
2022/11/18 13:04:07;;;;;;;28.35;17.05;;;;;;;;;;5076196;28;20139;-67
2022/11/18 13:06:35;;;;;;;27.60;15.38;;;;;;;;;;5077091;28;20972;-67
2022/11/18 13:09:02;;;;;;;28.45;16.30;;;;;;;;;;5052489;28;20143;-67
2022/11/18 13:11:43;;;;;;;33.42;15.07;;;;;;;;;;5057914;28;20048;-66
2022/11/18 13:19:55;;;;;;;20.50;12.43;;;;;;;;;;5061697;28;20056;-66
2022/11/18 13:25:21;;;;;;;17.83;10.95;;;;;;;;;;5075433;28;20428;-65
2022/11/18 13:27:51;;;;;;;23.80;11.80;;;;;;;;;;5074212;28;20058;-65
2022/11/18 13:30:17;;;;;;;17.40;11.45;;;;;;;;;;5056673;28;20102;-65
2022/11/18 13:32:44;;;;;;;23.20;12.43;;;;;;;;;;5073649;28;20509;-65
2022/11/18 13:35:11;;;;;;;22.75;12.20;;;;;;;;;;5055341;28;20102;-65
2022/11/18 13:37:47;;;;;;;23.20;12.77;;;;;;;;;;5058008;28;20051;-65
2022/11/18 13:40:18;;;;;;;21.15;13.48;;;;;;;;;;5081144;28;20100;-65
2022/11/18 13:42:44;;;;;;;22.20;14.48;;;;;;;;;;5060768;28;20476;-65
2022/11/18 13:45:12;;;;;;;23.60;14.07;;;;;;;;;;5057028;28;20132;-65
2022/11/18 13:47:46;;;;;;;27.90;15.65;;;;;;;;;;5050296;28;20052;-65
2022/11/18 13:50:12;;;;;;;;;;;;;;;;;;5048121;28;20045;-65
2022/11/18 13:52:42;;;;;;;28.40;15.73;;;;;;;;;;5055014;28;20058;-64
2022/11/18 13:55:12;;;;;;;24.48;14.07;;;;;;;;;;5057134;28;20059;-65
2022/11/18 13:57:38;;;;;;;27.42;14.07;;;;;;;;;;5055801;28;20055;-65
2022/11/18 14:00:06;;;;;;;25.60;13.07;;;;;;;;;;5055223;28;20467;-65
2022/11/18 14:02:37;;;;;;;24.27;13.52;;;;;;;;;;5053111;28;20037;-65
2022/11/18 14:05:04;;;;;;;24.90;14.13;;;;;;;;;;5057386;28;20056;-65
2022/11/18 14:07:32;;;;;;;31.65;17.92;;;;;;;;;;5058859;28;20052;-65
2022/11/18 14:10:00;;;;;;;23.77;15.32;;;;;;;;;;5055035;28;20045;-65
2022/11/18 14:12:28;;;;;;;28.17;15.68;;;;;;;;;;5057328;28;20036;-65
2022/11/18 14:15:12;;;;;;;25.33;14.80;;;;;;;;;;5061813;28;20060;-65
2022/11/18 14:17:38;;;;;;;22.07;13.77;;;;;;;;;;5053019;28;20049;-65
2022/11/18 14:20:08;;;;;;;22.58;13.00;;;;;;;;;;5055925;28;20135;-65
2022/11/18 14:22:41;;;;;;;22.88;13.75;;;;;;;;;;5055322;28;20130;-65
2022/11/18 14:25:21;;;;;;;22.90;14.07;;;;;;;;;;5061286;28;20113;-65
2022/11/18 14:27:48;;;;;;;21.27;13.15;;;;;;;;;;5058904;28;20060;-65
2022/11/18 14:30:29;;;;;;;24.83;13.15;;;;;;;;;;5054197;28;20075;-67
2022/11/18 14:33:05;;;;;;;26.67;15.45;;;;;;;;;;5054183;28;20175;-65
2022/11/18 14:35:32;;;;;;;28.17;15.45;;;;;;;;;;5057891;28;20573;-65
2022/11/18 14:37:58;;;;;;;29.70;15.98;;;;;;;;;;5053272;28;20052;-65
2022/11/18 14:40:24;;;;;;;24.58;14.10;;;;;;;;;;5059170;28;20093;-65
2022/11/18 14:42:50;;;;;;;28.17;15.20;;;;;;;;;;5058286;28;20041;-65
2022/11/18 14:45:16;;;;;;;28.63;16.63;;;;;;;;;;5059728;28;20180;-65
2022/11/18 14:47:43;;;;;;;27.92;16.55;;;;;;;;;;5053165;28;20485;-65
2022/11/18 14:50:12;;;;;;;25.25;14.88;;;;;;;;;;5053268;28;20569;-65